Time;durP1;ratioP1;P1;durP2;ratioP2;P2;SDS_P1;SDS_P2;PMS_P1;PMS_P2;Temp;Humidity;BMP_temperature;BMP_pressure;BME280_temperature;BME280_humidity;BME280_pressure;Samples;Min_cycle;Max_cycle;Signal;HPM_P1;HPM_P2
2023/07/11 00:00:48;;;;;;;9.63;6.70;;;;;;;;;;5049102;28;20068;-81
2023/07/11 00:03:15;;;;;;;9.98;5.63;;;;;;;;;;5058631;28;20449;-80
2023/07/11 00:05:41;;;;;;;9.68;6.22;;;;;;;;;;5058230;28;20033;-79
2023/07/11 00:08:08;;;;;;;11.18;6.20;;;;;;;;;;5057722;28;20076;-79
2023/07/11 00:10:35;;;;;;;10.90;5.88;;;;;;;;;;5057129;28;20060;-79
2023/07/11 00:13:02;;;;;;;12.25;5.65;;;;;;;;;;5056485;28;20060;-79
2023/07/11 00:15:30;;;;;;;8.48;5.25;;;;;;;;;;5063768;28;20061;-78
2023/07/11 00:17:57;;;;;;;10.85;4.88;;;;;;;;;;5053794;28;20057;-81
2023/07/11 00:20:24;;;;;;;12.23;5.63;;;;;;;;;;5058082;28;20133;-79
2023/07/11 00:22:50;;;;;;;10.13;4.78;;;;;;;;;;5056840;28;20052;-76
2023/07/11 00:25:17;;;;;;;6.72;4.05;;;;;;;;;;5057383;28;20049;-78
2023/07/11 00:27:44;;;;;;;8.55;5.05;;;;;;;;;;5056833;28;20075;-79
2023/07/11 00:30:10;;;;;;;8.63;5.10;;;;;;;;;;5055516;28;20308;-78
2023/07/11 00:32:37;;;;;;;8.50;5.38;;;;;;;;;;5056907;28;20367;-80
2023/07/11 00:35:04;;;;;;;7.60;5.60;;;;;;;;;;5056717;28;20041;-78
2023/07/11 00:37:34;;;;;;;10.38;5.65;;;;;;;;;;5054807;28;20117;-78
2023/07/11 00:40:02;;;;;;;8.75;5.45;;;;;;;;;;5073520;28;20048;-78
2023/07/11 00:42:29;;;;;;;7.47;5.60;;;;;;;;;;5075623;28;20063;-78
2023/07/11 00:45:03;;;;;;;11.55;6.13;;;;;;;;;;5075107;28;20040;-80
2023/07/11 00:47:30;;;;;;;9.00;5.95;;;;;;;;;;5074927;28;20443;-78
2023/07/11 00:50:07;;;;;;;11.38;6.22;;;;;;;;;;5072527;28;20119;-77
2023/07/11 00:52:35;;;;;;;8.52;5.78;;;;;;;;;;5071790;28;20051;-78
2023/07/11 00:55:05;;;;;;;11.50;5.82;;;;;;;;;;5071096;28;20040;-79
2023/07/11 00:57:34;;;;;;;10.77;6.57;;;;;;;;;;5071996;28;20072;-78
2023/07/11 01:00:01;;;;;;;11.88;6.68;;;;;;;;;;5075853;28;20143;-80
2023/07/11 01:02:28;;;;;;;12.70;6.10;;;;;;;;;;5077915;28;20062;-79
2023/07/11 01:05:01;;;;;;;8.75;5.72;;;;;;;;;;5073691;28;20465;-79
2023/07/11 01:07:30;;;;;;;9.13;5.68;;;;;;;;;;5076324;28;20112;-79
2023/07/11 01:09:58;;;;;;;11.07;5.72;;;;;;;;;;5076388;28;20041;-79
2023/07/11 01:12:24;;;;;;;9.38;5.65;;;;;;;;;;5077064;28;20048;-80
2023/07/11 01:14:51;;;;;;;9.90;5.43;;;;;;;;;;5078290;28;20044;-80
2023/07/11 01:17:30;;;;;;;12.82;6.00;;;;;;;;;;5076833;28;20105;-78
2023/07/11 01:19:58;;;;;;;9.90;5.32;;;;;;;;;;5078528;28;20052;-80
2023/07/11 01:22:26;;;;;;;10.70;5.70;;;;;;;;;;5083516;28;20078;-79
2023/07/11 01:24:53;;;;;;;10.77;5.68;;;;;;;;;;5081028;28;20051;-80
2023/07/11 01:27:20;;;;;;;8.15;5.55;;;;;;;;;;5073302;28;20049;-80
2023/07/11 01:29:49;;;;;;;9.20;5.10;;;;;;;;;;5075211;28;20041;-80
2023/07/11 01:32:16;;;;;;;8.73;5.50;;;;;;;;;;5075934;28;20060;-78
2023/07/11 01:34:43;;;;;;;7.20;4.80;;;;;;;;;;5056851;28;20044;-79
2023/07/11 01:37:10;;;;;;;8.73;4.88;;;;;;;;;;5074614;28;20048;-80
2023/07/11 01:39:37;;;;;;;9.32;5.68;;;;;;;;;;5057281;28;20041;-78
2023/07/11 01:42:03;;;;;;;11.93;5.50;;;;;;;;;;5070430;28;20045;-79
2023/07/11 01:44:31;;;;;;;9.35;5.55;;;;;;;;;;5061179;28;20414;-80
2023/07/11 01:47:02;;;;;;;13.77;5.90;;;;;;;;;;5059184;28;20040;-80
2023/07/11 01:49:29;;;;;;;8.77;5.28;;;;;;;;;;5061869;28;20467;-79
2023/07/11 01:52:04;;;;;;;8.82;5.30;;;;;;;;;;5059161;28;20049;-80
2023/07/11 01:54:32;;;;;;;8.65;5.68;;;;;;;;;;5058555;28;20065;-79
2023/07/11 01:56:59;;;;;;;12.98;6.03;;;;;;;;;;5057414;28;20533;-76
2023/07/11 01:59:26;;;;;;;10.52;5.72;;;;;;;;;;5056985;28;20383;-78
2023/07/11 02:01:53;;;;;;;14.68;6.03;;;;;;;;;;5057526;28;20059;-80
2023/07/11 02:04:22;;;;;;;12.50;5.78;;;;;;;;;;5057540;28;20037;-80
2023/07/11 02:06:49;;;;;;;9.50;5.68;;;;;;;;;;5058367;28;20052;-80
2023/07/11 02:09:17;;;;;;;11.98;6.13;;;;;;;;;;5075632;28;20375;-80
2023/07/11 02:11:43;;;;;;;8.25;5.32;;;;;;;;;;5078960;28;20135;-81
2023/07/11 02:14:15;;;;;;;7.93;5.38;;;;;;;;;;5080424;28;20072;-80
2023/07/11 02:16:49;;;;;;;11.27;6.00;;;;;;;;;;5082037;28;20058;-78
2023/07/11 02:19:20;;;;;;;11.70;5.20;;;;;;;;;;5066024;28;20128;-78
2023/07/11 02:21:47;;;;;;;8.57;5.00;;;;;;;;;;5078359;28;20575;-79
2023/07/11 02:24:15;;;;;;;8.23;5.20;;;;;;;;;;5076818;28;20111;-78
2023/07/11 02:26:42;;;;;;;9.85;5.40;;;;;;;;;;5075471;28;20094;-79
2023/07/11 02:29:09;;;;;;;9.75;5.30;;;;;;;;;;5077118;28;20044;-78
2023/07/11 02:31:36;;;;;;;13.23;5.47;;;;;;;;;;5078766;28;20064;-80
2023/07/11 02:34:03;;;;;;;12.00;5.78;;;;;;;;;;5077057;28;20055;-78
2023/07/11 02:36:30;;;;;;;11.80;5.38;;;;;;;;;;5076187;28;20113;-80
2023/07/11 02:38:56;;;;;;;8.98;4.80;;;;;;;;;;5065017;28;20099;-80
2023/07/11 02:41:24;;;;;;;13.63;5.65;;;;;;;;;;5057201;28;20065;-80
2023/07/11 02:43:51;;;;;;;16.50;6.50;;;;;;;;;;5056311;28;20045;-79
2023/07/11 02:46:17;;;;;;;11.80;5.05;;;;;;;;;;5056964;28;20109;-80
2023/07/11 02:48:44;;;;;;;8.40;4.88;;;;;;;;;;5056850;28;20036;-80
2023/07/11 02:51:11;;;;;;;8.93;5.50;;;;;;;;;;5056252;28;20048;-80
2023/07/11 02:53:37;;;;;;;11.13;5.45;;;;;;;;;;5053185;28;20041;-79
2023/07/11 02:56:04;;;;;;;13.75;5.18;;;;;;;;;;5054683;28;20063;-79
2023/07/11 02:58:31;;;;;;;6.85;4.93;;;;;;;;;;5054054;28;20099;-79
2023/07/11 03:00:59;;;;;;;12.20;5.10;;;;;;;;;;5066559;28;20045;-78
2023/07/11 03:03:25;;;;;;;9.75;4.63;;;;;;;;;;5056662;28;20045;-78
2023/07/11 03:05:53;;;;;;;9.27;4.75;;;;;;;;;;5051277;28;20131;-78
2023/07/11 03:08:20;;;;;;;7.50;5.03;;;;;;;;;;5067771;28;20080;-80
2023/07/11 03:10:46;;;;;;;17.85;5.78;;;;;;;;;;5079254;28;20052;-79
2023/07/11 03:13:13;;;;;;;10.68;5.10;;;;;;;;;;5078880;28;20548;-79
2023/07/11 03:15:40;;;;;;;18.05;6.57;;;;;;;;;;5078068;28;20196;-80
2023/07/11 03:18:07;;;;;;;8.77;5.38;;;;;;;;;;5076685;28;20070;-79
2023/07/11 03:20:37;;;;;;;9.45;5.05;;;;;;;;;;5079336;28;20048;-77
2023/07/11 03:23:04;;;;;;;8.05;5.18;;;;;;;;;;5076813;28;20133;-78
2023/07/11 03:25:30;;;;;;;10.15;5.32;;;;;;;;;;5079078;28;20040;-79
2023/07/11 03:27:57;;;;;;;10.75;5.28;;;;;;;;;;5077643;28;20541;-79
2023/07/11 03:30:24;;;;;;;8.68;5.95;;;;;;;;;;5077644;28;20064;-79
2023/07/11 03:32:50;;;;;;;10.98;5.32;;;;;;;;;;5079105;28;20113;-79
2023/07/11 03:35:17;;;;;;;12.25;6.07;;;;;;;;;;5078959;28;20429;-80
2023/07/11 03:37:44;;;;;;;13.38;5.97;;;;;;;;;;5077436;28;20098;-79
2023/07/11 03:40:10;;;;;;;9.85;5.68;;;;;;;;;;5078714;28;20048;-79
2023/07/11 03:42:37;;;;;;;8.80;5.95;;;;;;;;;;5084178;28;20043;-77
2023/07/11 03:45:04;;;;;;;9.15;6.13;;;;;;;;;;5088677;28;20060;-79
2023/07/11 03:47:30;;;;;;;10.15;5.20;;;;;;;;;;5077129;28;20386;-79
2023/07/11 03:49:57;;;;;;;9.15;5.40;;;;;;;;;;5077954;28;20328;-80
2023/07/11 03:52:24;;;;;;;10.45;5.70;;;;;;;;;;5079239;28;20056;-78
2023/07/11 03:54:50;;;;;;;10.75;5.43;;;;;;;;;;5078834;28;20505;-79
2023/07/11 03:57:17;;;;;;;11.80;5.97;;;;;;;;;;5078287;28;20542;-79
2023/07/11 03:59:43;;;;;;;11.55;5.90;;;;;;;;;;5078401;28;20067;-80
2023/07/11 04:02:10;;;;;;;10.18;5.43;;;;;;;;;;5078637;28;20049;-79
2023/07/11 04:04:36;;;;;;;14.73;6.10;;;;;;;;;;5078760;28;20292;-79
2023/07/11 04:07:03;;;;;;;13.70;5.60;;;;;;;;;;5074547;28;20494;-79
2023/07/11 04:09:30;;;;;;;11.75;5.75;;;;;;;;;;5075698;28;20108;-80
2023/07/11 04:11:57;;;;;;;12.23;5.50;;;;;;;;;;5078278;28;20268;-80
2023/07/11 04:14:23;;;;;;;11.85;6.10;;;;;;;;;;5078302;28;20048;-80
2023/07/11 04:16:50;;;;;;;8.70;5.88;;;;;;;;;;5077320;28;20050;-79
2023/07/11 04:19:16;;;;;;;9.35;5.78;;;;;;;;;;5076231;28;20164;-79
2023/07/11 04:21:43;;;;;;;10.73;5.70;;;;;;;;;;5077253;28;20131;-80
2023/07/11 04:24:10;;;;;;;11.05;6.50;;;;;;;;;;5077786;28;20053;-79
2023/07/11 04:26:37;;;;;;;10.63;5.78;;;;;;;;;;5078125;28;20044;-80
2023/07/11 04:29:03;;;;;;;11.82;6.35;;;;;;;;;;5076096;28;20061;-79
2023/07/11 04:31:31;;;;;;;13.20;5.72;;;;;;;;;;5077230;28;20071;-79
2023/07/11 04:33:57;;;;;;;10.43;6.05;;;;;;;;;;5077746;28;20043;-80
2023/07/11 04:36:24;;;;;;;11.45;5.63;;;;;;;;;;5076164;28;20159;-80
2023/07/11 04:38:51;;;;;;;12.23;5.97;;;;;;;;;;5047702;28;20041;-79
2023/07/11 04:41:19;;;;;;;9.57;6.43;;;;;;;;;;5058321;28;20467;-79
2023/07/11 04:43:46;;;;;;;10.50;5.63;;;;;;;;;;5055679;28;20055;-78
2023/07/11 04:46:12;;;;;;;9.73;5.80;;;;;;;;;;5056061;28;20375;-79
2023/07/11 04:48:39;;;;;;;10.57;6.88;;;;;;;;;;5057085;28;20056;-79
2023/07/11 04:51:08;;;;;;;16.42;8.65;;;;;;;;;;5053345;28;20049;-80
2023/07/11 04:53:35;;;;;;;14.52;8.05;;;;;;;;;;5053874;28;20545;-79
2023/07/11 04:56:02;;;;;;;19.88;8.75;;;;;;;;;;5053755;28;20041;-81
2023/07/11 04:58:30;;;;;;;19.05;9.82;;;;;;;;;;5054099;28;20056;-81
2023/07/11 05:01:00;;;;;;;19.77;10.43;;;;;;;;;;5055659;28;20072;-78
2023/07/11 05:03:27;;;;;;;17.10;11.40;;;;;;;;;;5057193;28;20061;-77
2023/07/11 05:05:54;;;;;;;22.77;11.90;;;;;;;;;;5054527;28;20068;-79
2023/07/11 05:08:21;;;;;;;22.60;11.02;;;;;;;;;;5048139;28;20046;-78
2023/07/11 05:10:51;;;;;;;17.95;11.57;;;;;;;;;;5049809;28;20044;-79
2023/07/11 05:13:18;;;;;;;18.13;11.07;;;;;;;;;;5049682;28;20053;-79
2023/07/11 05:15:45;;;;;;;16.60;9.45;;;;;;;;;;5051010;28;20045;-79
2023/07/11 05:18:12;;;;;;;16.35;9.65;;;;;;;;;;5051475;28;20044;-79
2023/07/11 05:20:38;;;;;;;15.50;8.35;;;;;;;;;;5052866;28;20106;-79
2023/07/11 05:23:05;;;;;;;12.38;8.40;;;;;;;;;;5053307;28;20129;-79
2023/07/11 05:25:31;;;;;;;12.98;7.30;;;;;;;;;;5053167;28;20072;-80
2023/07/11 05:27:58;;;;;;;11.63;7.95;;;;;;;;;;5053784;28;20041;-79
2023/07/11 05:30:24;;;;;;;13.43;7.28;;;;;;;;;;5054757;28;20060;-79
2023/07/11 05:32:51;;;;;;;10.95;7.00;;;;;;;;;;5053966;28;20041;-80
2023/07/11 05:35:17;;;;;;;11.32;6.53;;;;;;;;;;5055257;28;20069;-79
2023/07/11 05:37:44;;;;;;;13.77;7.50;;;;;;;;;;5056390;28;20048;-79
2023/07/11 05:40:10;;;;;;;11.63;7.22;;;;;;;;;;5075473;28;20209;-79
2023/07/11 05:42:37;;;;;;;14.07;7.43;;;;;;;;;;5076013;28;20087;-80
2023/07/11 05:45:04;;;;;;;11.10;6.93;;;;;;;;;;5075494;28;20066;-80
2023/07/11 05:47:31;;;;;;;12.02;6.65;;;;;;;;;;5083013;28;20104;-79
2023/07/11 05:49:58;;;;;;;11.50;7.15;;;;;;;;;;5079863;28;20350;-82
2023/07/11 05:52:24;;;;;;;12.35;7.10;;;;;;;;;;5076850;28;20112;-78
2023/07/11 05:54:51;;;;;;;13.13;6.68;;;;;;;;;;5074044;28;20094;-79
2023/07/11 05:57:17;;;;;;;10.52;6.60;;;;;;;;;;5075415;28;20068;-79
2023/07/11 05:59:44;;;;;;;11.40;6.70;;;;;;;;;;5076723;28;20052;-81
2023/07/11 06:02:10;;;;;;;8.75;5.85;;;;;;;;;;5076394;28;20041;-79
2023/07/11 06:04:37;;;;;;;10.30;6.07;;;;;;;;;;5077268;28;20045;-80
2023/07/11 06:07:03;;;;;;;12.02;6.30;;;;;;;;;;5076061;28;20230;-79
2023/07/11 06:09:30;;;;;;;8.32;5.30;;;;;;;;;;5076190;28;20055;-81
2023/07/11 06:11:59;;;;;;;7.90;4.75;;;;;;;;;;5076075;28;20400;-80
2023/07/11 06:14:27;;;;;;;6.93;4.57;;;;;;;;;;5076899;28;20048;-79
2023/07/11 06:16:53;;;;;;;9.02;4.78;;;;;;;;;;5078141;28;20052;-81
2023/07/11 06:19:20;;;;;;;7.47;4.40;;;;;;;;;;5076655;28;20056;-80
2023/07/11 06:21:46;;;;;;;6.38;4.18;;;;;;;;;;5076358;28;20526;-80
2023/07/11 06:24:13;;;;;;;7.95;4.82;;;;;;;;;;5076641;28;20087;-80
2023/07/11 06:26:39;;;;;;;8.20;4.47;;;;;;;;;;5076169;28;20166;-80
2023/07/11 06:29:06;;;;;;;10.20;4.28;;;;;;;;;;5078891;28;20045;-80
2023/07/11 06:31:33;;;;;;;9.77;4.50;;;;;;;;;;5080935;28;20063;-80
2023/07/11 06:33:59;;;;;;;10.02;3.97;;;;;;;;;;5079350;28;20098;-80
2023/07/11 06:36:26;;;;;;;7.07;3.90;;;;;;;;;;5079781;28;20155;-80
2023/07/11 06:39:02;;;;;;;6.60;3.90;;;;;;;;;;5067732;28;20131;-80
2023/07/11 06:41:29;;;;;;;5.72;3.45;;;;;;;;;;5059230;28;20045;-78
2023/07/11 06:43:56;;;;;;;6.55;3.38;;;;;;;;;;5057977;28;20075;-80
2023/07/11 06:46:22;;;;;;;6.60;3.10;;;;;;;;;;5059159;28;20067;-81
2023/07/11 06:48:49;;;;;;;6.65;3.10;;;;;;;;;;5059175;28;20108;-80
2023/07/11 06:51:16;;;;;;;6.90;2.88;;;;;;;;;;5059951;28;20067;-79
2023/07/11 06:53:42;;;;;;;6.82;3.33;;;;;;;;;;5059002;28;20044;-80
2023/07/11 06:56:09;;;;;;;6.00;3.25;;;;;;;;;;5059342;28;20045;-80
2023/07/11 06:58:35;;;;;;;4.65;2.67;;;;;;;;;;5059105;28;20045;-80
2023/07/11 07:01:04;;;;;;;5.45;3.42;;;;;;;;;;5058920;28;20148;-80
2023/07/11 07:03:37;;;;;;;5.20;2.72;;;;;;;;;;5060741;28;20127;-79
2023/07/11 07:06:09;;;;;;;7.45;3.10;;;;;;;;;;5061527;28;20090;-81
2023/07/11 07:08:35;;;;;;;5.80;2.70;;;;;;;;;;5063491;28;20045;-80
2023/07/11 07:11:02;;;;;;;4.68;3.13;;;;;;;;;;5069176;28;20157;-81
2023/07/11 07:13:30;;;;;;;7.85;2.72;;;;;;;;;;5060235;28;20048;-79
2023/07/11 07:15:58;;;;;;;3.50;2.40;;;;;;;;;;5058455;28;20025;-79
2023/07/11 07:18:26;;;;;;;5.70;2.55;;;;;;;;;;5057120;28;20044;-80
2023/07/11 07:20:53;;;;;;;5.07;2.45;;;;;;;;;;5058137;28;20526;-81
2023/07/11 07:23:36;;;;;;;5.88;2.35;;;;;;;;;;5056591;28;20056;-81
2023/07/11 07:26:03;;;;;;;8.43;2.30;;;;;;;;;;5055942;28;20037;-80
2023/07/11 07:28:30;;;;;;;3.08;1.77;;;;;;;;;;5056190;28;20495;-80
2023/07/11 07:30:57;;;;;;;5.05;2.08;;;;;;;;;;5057783;28;20057;-80
2023/07/11 07:33:25;;;;;;;3.83;1.75;;;;;;;;;;5057031;28;20142;-80
2023/07/11 07:35:57;;;;;;;3.42;1.80;;;;;;;;;;5054958;28;20136;-79
2023/07/11 07:38:27;;;;;;;5.20;1.92;;;;;;;;;;5062980;28;20142;-80
2023/07/11 07:40:56;;;;;;;3.03;1.90;;;;;;;;;;5073297;28;20464;-80
2023/07/11 07:43:22;;;;;;;4.32;1.90;;;;;;;;;;5070437;28;20105;-81
2023/07/11 07:45:49;;;;;;;4.60;1.90;;;;;;;;;;5076860;28;20123;-79
2023/07/11 07:48:17;;;;;;;3.85;2.10;;;;;;;;;;5078552;28;20074;-80
2023/07/11 07:50:44;;;;;;;10.25;2.70;;;;;;;;;;5077780;28;20056;-80
2023/07/11 07:53:11;;;;;;;3.97;1.98;;;;;;;;;;5085976;28;20040;-80
2023/07/11 07:55:38;;;;;;;4.85;2.45;;;;;;;;;;5082830;28;20044;-78
2023/07/11 07:58:05;;;;;;;7.15;2.08;;;;;;;;;;5076683;28;20044;-80
2023/07/11 08:00:32;;;;;;;4.72;2.22;;;;;;;;;;5077434;28;20040;-81
2023/07/11 08:02:59;;;;;;;3.33;2.17;;;;;;;;;;5076846;28;20123;-80
2023/07/11 08:05:26;;;;;;;5.75;2.17;;;;;;;;;;5079024;28;20050;-80
2023/07/11 08:07:52;;;;;;;5.07;2.10;;;;;;;;;;5077184;28;20044;-80
2023/07/11 08:10:19;;;;;;;7.72;2.42;;;;;;;;;;5076929;28;20082;-80
2023/07/11 08:12:46;;;;;;;4.40;2.00;;;;;;;;;;5078570;28;20052;-81
2023/07/11 08:15:13;;;;;;;2.92;1.98;;;;;;;;;;5077576;28;20075;-80
2023/07/11 08:17:42;;;;;;;4.07;2.10;;;;;;;;;;5075528;28;20090;-78
2023/07/11 08:20:09;;;;;;;5.72;2.65;;;;;;;;;;5076170;28;20473;-80
2023/07/11 08:22:36;;;;;;;6.80;2.30;;;;;;;;;;5078313;28;20068;-81
2023/07/11 08:25:03;;;;;;;5.00;2.10;;;;;;;;;;5077178;28;20048;-79
2023/07/11 08:27:29;;;;;;;4.93;2.20;;;;;;;;;;5055002;28;20080;-80
2023/07/11 08:29:56;;;;;;;6.22;2.13;;;;;;;;;;5056511;28;20064;-80
2023/07/11 08:32:22;;;;;;;3.80;2.50;;;;;;;;;;5055966;28;20163;-79
2023/07/11 08:34:49;;;;;;;4.72;2.55;;;;;;;;;;5056996;28;20052;-80
2023/07/11 08:37:16;;;;;;;2.95;2.17;;;;;;;;;;5056902;28;20045;-80
2023/07/11 08:39:42;;;;;;;4.07;2.53;;;;;;;;;;5076799;28;20044;-80
2023/07/11 08:42:17;;;;;;;6.85;2.60;;;;;;;;;;5077938;28;20045;-81
2023/07/11 08:44:48;;;;;;;4.30;2.72;;;;;;;;;;5077953;28;20590;-80
2023/07/11 08:47:20;;;;;;;5.00;2.60;;;;;;;;;;5076987;28;20079;-80
2023/07/11 08:49:49;;;;;;;3.95;2.67;;;;;;;;;;5074330;28;20102;-83
2023/07/11 08:52:18;;;;;;;6.10;2.95;;;;;;;;;;5075131;28;20049;-79
2023/07/11 08:55:03;;;;;;;4.32;2.67;;;;;;;;;;5074910;28;20056;-79
2023/07/11 08:57:33;;;;;;;9.35;2.85;;;;;;;;;;5074237;28;20147;-80
2023/07/11 09:00:03;;;;;;;6.07;2.95;;;;;;;;;;5076953;28;20094;-80
2023/07/11 09:02:49;;;;;;;5.57;2.95;;;;;;;;;;5077795;28;20048;-79
2023/07/11 09:05:18;;;;;;;5.10;2.97;;;;;;;;;;5076283;28;20094;-80
2023/07/11 09:07:45;;;;;;;5.72;2.80;;;;;;;;;;5074762;28;20045;-79
2023/07/11 09:10:29;;;;;;;4.93;2.90;;;;;;;;;;5076319;28;20411;-79
2023/07/11 09:13:20;;;;;;;4.97;2.80;;;;;;;;;;5075677;28;20048;-81
2023/07/11 09:16:05;;;;;;;5.40;2.58;;;;;;;;;;5076706;28;20060;-79
2023/07/11 09:18:56;;;;;;;5.10;3.00;;;;;;;;;;5074279;28;20052;-79
2023/07/11 09:21:26;;;;;;;6.05;2.70;;;;;;;;;;5065381;28;20572;-80
2023/07/11 09:23:59;;;;;;;2.97;2.20;;;;;;;;;;5074233;28;20045;-80
2023/07/11 09:26:47;;;;;;;3.95;2.70;;;;;;;;;;5074730;28;20041;-82
2023/07/11 09:29:15;;;;;;;5.80;2.90;;;;;;;;;;5073712;28;20063;-79
2023/07/11 09:31:44;;;;;;;4.25;3.22;;;;;;;;;;5075550;28;20105;-81
2023/07/11 09:34:34;;;;;;;6.80;3.70;;;;;;;;;;5074419;28;20048;-80
2023/07/11 09:37:08;;;;;;;8.10;3.30;;;;;;;;;;5066892;28;20091;-80
2023/07/11 09:39:39;;;;;;;5.38;2.90;;;;;;;;;;5075672;28;20045;-81
2023/07/11 09:42:24;;;;;;;4.45;3.03;;;;;;;;;;5072097;28;20063;-80
2023/07/11 09:45:00;;;;;;;5.27;3.20;;;;;;;;;;5074970;28;20055;-81
2023/07/11 09:47:30;;;;;;;4.75;2.95;;;;;;;;;;5075011;28;20059;-81
2023/07/11 09:49:57;;;;;;;6.43;3.53;;;;;;;;;;5075720;28;20325;-82
2023/07/11 09:52:26;;;;;;;6.00;3.58;;;;;;;;;;5075691;28;20052;-81
2023/07/11 09:54:54;;;;;;;5.35;3.67;;;;;;;;;;5078359;28;20051;-81
2023/07/11 09:57:34;;;;;;;7.97;3.90;;;;;;;;;;5078645;28;20052;-80
2023/07/11 10:00:04;;;;;;;6.90;4.65;;;;;;;;;;5070154;28;20055;-79
2023/07/11 10:02:48;;;;;;;6.47;3.60;;;;;;;;;;5076300;28;20045;-80
2023/07/11 10:05:20;;;;;;;6.07;3.28;;;;;;;;;;5078406;28;20044;-82
2023/07/11 10:08:12;;;;;;;6.35;3.65;;;;;;;;;;5076209;28;20119;-81
2023/07/11 10:10:44;;;;;;;8.80;4.03;;;;;;;;;;5076941;28;20045;-81
2023/07/11 10:13:11;;;;;;;5.82;4.10;;;;;;;;;;5075393;28;20048;-80
2023/07/11 10:15:58;;;;;;;5.25;4.05;;;;;;;;;;5076923;28;20037;-80
2023/07/11 10:18:26;;;;;;;4.85;3.97;;;;;;;;;;5074830;28;20044;-80
2023/07/11 10:20:55;;;;;;;8.00;4.93;;;;;;;;;;5075425;28;20066;-81
2023/07/11 10:23:24;;;;;;;4.38;3.70;;;;;;;;;;5075128;28;20060;-81
2023/07/11 10:25:54;;;;;;;6.15;3.97;;;;;;;;;;5078576;28;20051;-80
2023/07/11 10:28:29;;;;;;;5.88;4.38;;;;;;;;;;5076552;28;20048;-80
2023/07/11 10:30:57;;;;;;;6.53;4.50;;;;;;;;;;5076364;28;20052;-81
2023/07/11 10:33:29;;;;;;;5.85;4.28;;;;;;;;;;5076821;28;20045;-80
2023/07/11 10:36:19;;;;;;;5.80;4.30;;;;;;;;;;5074123;28;20049;-80
2023/07/11 10:39:00;;;;;;;6.03;4.82;;;;;;;;;;5063398;28;20115;-81
2023/07/11 10:41:43;;;;;;;6.57;4.40;;;;;;;;;;5057354;28;20048;-82
2023/07/11 10:44:26;;;;;;;7.72;5.13;;;;;;;;;;5056443;28;20044;-80
2023/07/11 10:46:53;;;;;;;6.40;4.68;;;;;;;;;;5057986;28;20416;-78
2023/07/11 10:49:49;;;;;;;6.55;4.80;;;;;;;;;;5058578;28;20040;-80
2023/07/11 10:52:23;;;;;;;5.80;4.78;;;;;;;;;;5046691;28;20060;-82
2023/07/11 10:55:08;;;;;;;8.40;5.18;;;;;;;;;;5058652;28;20067;-80
2023/07/11 10:57:38;;;;;;;6.25;5.15;;;;;;;;;;5056515;28;20049;-81
2023/07/11 11:00:10;;;;;;;;;;;;;;;;;;5058284;28;20052;-79
2023/07/11 11:02:46;;;;;;;10.23;5.15;;;;;;;;;;5056176;28;19959;-80
2023/07/11 11:05:31;;;;;;;7.55;5.07;;;;;;;;;;5058318;28;20128;-79
2023/07/11 11:08:06;;;;;;;7.47;5.32;;;;;;;;;;5053375;28;20048;-81
2023/07/11 11:10:42;;;;;;;6.50;5.05;;;;;;;;;;5056912;28;20049;-81
2023/07/11 11:13:29;;;;;;;9.07;5.63;;;;;;;;;;5055839;28;20037;-81
2023/07/11 11:16:00;;;;;;;5.68;5.10;;;;;;;;;;5055186;28;20384;-80
2023/07/11 11:18:30;;;;;;;6.28;5.20;;;;;;;;;;5057388;28;20052;-82
2023/07/11 11:20:57;;;;;;;7.10;5.68;;;;;;;;;;5057596;28;20041;-80
2023/07/11 11:24:05;;;;;;;7.30;5.40;;;;;;;;;;5054327;28;20060;-80
2023/07/11 11:26:45;;;;;;;7.35;5.20;;;;;;;;;;5053354;28;20068;-80
2023/07/11 11:29:12;;;;;;;6.72;5.20;;;;;;;;;;5053369;28;20045;-80
2023/07/11 11:31:45;;;;;;;8.38;5.53;;;;;;;;;;5055079;28;20045;-81
2023/07/11 11:34:15;;;;;;;7.30;5.28;;;;;;;;;;5054481;28;20045;-79
2023/07/11 11:36:59;;;;;;;7.20;5.80;;;;;;;;;;5050404;28;20053;-79
2023/07/11 11:39:26;;;;;;;9.23;5.50;;;;;;;;;;5069560;28;20045;-80
2023/07/11 11:41:56;;;;;;;7.00;5.30;;;;;;;;;;5073022;28;20063;-81
2023/07/11 11:44:32;;;;;;;6.80;5.25;;;;;;;;;;5069336;28;20040;-79
2023/07/11 11:47:02;;;;;;;6.28;5.32;;;;;;;;;;5069534;28;20037;-79
2023/07/11 11:49:50;;;;;;;6.78;5.30;;;;;;;;;;5072294;28;20088;-79
2023/07/11 11:52:24;;;;;;;7.68;5.55;;;;;;;;;;5079373;28;20037;-80
2023/07/11 11:54:55;;;;;;;7.82;6.00;;;;;;;;;;5085474;28;20086;-80
2023/07/11 11:57:23;;;;;;;7.28;5.75;;;;;;;;;;5076241;28;20417;-80
2023/07/11 11:59:50;;;;;;;8.32;5.70;;;;;;;;;;5077553;28;20063;-82
2023/07/11 12:02:21;;;;;;;8.75;5.97;;;;;;;;;;5077224;28;20060;-80
2023/07/11 12:05:06;;;;;;;6.95;5.60;;;;;;;;;;5076816;28;20075;-81
2023/07/11 12:07:33;;;;;;;;;;;;;;;;;;5074522;28;20044;-80
2023/07/11 12:10:08;;;;;;;8.50;6.30;;;;;;;;;;5073949;28;20042;-80
2023/07/11 12:12:35;;;;;;;8.77;7.07;;;;;;;;;;5075141;28;20144;-81
2023/07/11 12:15:10;;;;;;;8.35;6.78;;;;;;;;;;5069471;28;20139;-79
2023/07/11 12:17:40;;;;;;;9.80;6.35;;;;;;;;;;5070581;28;20045;-78
2023/07/11 12:20:07;;;;;;;10.35;6.93;;;;;;;;;;5075883;28;20068;-80
2023/07/11 12:22:36;;;;;;;8.68;6.38;;;;;;;;;;5077332;28;20470;-82
2023/07/11 12:25:06;;;;;;;7.85;6.18;;;;;;;;;;5076345;28;20332;-81
2023/07/11 12:27:33;;;;;;;9.27;6.28;;;;;;;;;;5076381;28;20124;-80
2023/07/11 12:30:00;;;;;;;9.10;6.47;;;;;;;;;;5079465;28;20148;-81
2023/07/11 12:32:30;;;;;;;9.70;6.80;;;;;;;;;;5076602;28;20044;-81
2023/07/11 12:35:05;;;;;;;8.27;6.75;;;;;;;;;;5075824;28;20052;-82
2023/07/11 12:37:53;;;;;;;8.73;6.53;;;;;;;;;;5072966;28;20048;-80
2023/07/11 12:40:21;;;;;;;10.10;6.78;;;;;;;;;;5054478;28;20527;-82
2023/07/11 12:42:55;;;;;;;9.00;7.13;;;;;;;;;;5054618;28;20075;-80
2023/07/11 12:45:24;;;;;;;8.35;7.20;;;;;;;;;;5056286;28;20052;-82
2023/07/11 12:48:00;;;;;;;10.32;6.95;;;;;;;;;;5055617;28;20514;-81
2023/07/11 12:50:33;;;;;;;10.25;6.90;;;;;;;;;;5055470;28;20048;-80
2023/07/11 12:53:00;;;;;;;10.07;8.05;;;;;;;;;;5057608;28;20483;-82
2023/07/11 12:55:27;;;;;;;11.32;7.97;;;;;;;;;;5056514;28;20040;-80
2023/07/11 12:57:54;;;;;;;10.18;7.85;;;;;;;;;;5057819;28;20402;-79
2023/07/11 13:00:21;;;;;;;10.07;7.80;;;;;;;;;;5054081;28;20049;-80
2023/07/11 13:02:50;;;;;;;10.38;8.38;;;;;;;;;;5055724;28;20446;-81
2023/07/11 13:05:16;;;;;;;11.27;8.32;;;;;;;;;;5055549;28;20119;-80
2023/07/11 13:07:44;;;;;;;9.43;8.25;;;;;;;;;;5053250;28;20068;-79
2023/07/11 13:10:20;;;;;;;9.95;7.70;;;;;;;;;;5054179;28;20044;-81
2023/07/11 13:12:47;;;;;;;8.98;7.63;;;;;;;;;;5054197;28;20466;-80
2023/07/11 13:15:15;;;;;;;9.13;8.05;;;;;;;;;;5052096;28;20044;-79
2023/07/11 13:17:43;;;;;;;9.80;7.75;;;;;;;;;;5052989;28;20124;-78
2023/07/11 13:20:29;;;;;;;12.70;9.18;;;;;;;;;;5047007;28;20155;-80
2023/07/11 13:22:56;;;;;;;12.02;8.98;;;;;;;;;;5055906;28;20055;-79
2023/07/11 13:25:30;;;;;;;13.15;9.27;;;;;;;;;;5054436;28;20058;-79
2023/07/11 13:27:56;;;;;;;11.00;8.05;;;;;;;;;;5052433;28;20084;-78
2023/07/11 13:30:25;;;;;;;13.10;8.73;;;;;;;;;;5057705;28;20061;-80
2023/07/11 13:32:54;;;;;;;15.07;9.90;;;;;;;;;;5051416;28;20053;-80
2023/07/11 13:35:22;;;;;;;11.65;9.13;;;;;;;;;;5048105;28;20040;-80
2023/07/11 13:37:50;;;;;;;14.88;10.10;;;;;;;;;;5055020;28;20048;-80
2023/07/11 13:40:43;;;;;;;11.18;8.75;;;;;;;;;;5074993;28;20044;-79
2023/07/11 13:43:15;;;;;;;12.00;9.40;;;;;;;;;;5072828;28;20508;-78
2023/07/11 13:45:44;;;;;;;11.77;9.27;;;;;;;;;;5074916;28;20062;-79
2023/07/11 13:48:19;;;;;;;11.80;9.10;;;;;;;;;;5077639;28;20051;-81
2023/07/11 13:50:46;;;;;;;11.27;8.95;;;;;;;;;;5085997;28;20492;-79
2023/07/11 13:53:15;;;;;;;12.35;9.52;;;;;;;;;;5077921;28;20045;-80
2023/07/11 13:55:48;;;;;;;13.65;9.25;;;;;;;;;;5075835;28;20101;-80
2023/07/11 13:58:15;;;;;;;11.07;8.82;;;;;;;;;;5075620;28;20102;-80
2023/07/11 14:00:46;;;;;;;13.95;9.32;;;;;;;;;;5075532;28;20476;-79
2023/07/11 14:03:21;;;;;;;12.73;9.75;;;;;;;;;;5075637;28;20045;-79
2023/07/11 14:05:50;;;;;;;12.82;9.82;;;;;;;;;;5075424;28;20044;-80
2023/07/11 14:08:20;;;;;;;12.68;9.20;;;;;;;;;;5076198;28;20566;-78
2023/07/11 14:10:48;;;;;;;13.35;9.77;;;;;;;;;;5077429;28;20207;-79
2023/07/11 14:13:23;;;;;;;14.02;9.80;;;;;;;;;;5081169;28;20055;-78
2023/07/11 14:15:50;;;;;;;13.18;9.00;;;;;;;;;;5083608;28;20144;-79
2023/07/11 14:18:17;;;;;;;15.10;9.70;;;;;;;;;;5082215;28;20052;-79
2023/07/11 14:20:44;;;;;;;13.02;9.30;;;;;;;;;;5082852;28;20102;-80
2023/07/11 14:23:21;;;;;;;12.05;9.30;;;;;;;;;;5080079;28;20044;-79
2023/07/11 14:25:48;;;;;;;12.52;9.27;;;;;;;;;;5078125;28;20071;-80
2023/07/11 14:28:16;;;;;;;12.52;8.77;;;;;;;;;;5079821;28;20152;-78
2023/07/11 14:30:42;;;;;;;11.32;9.00;;;;;;;;;;5076740;28;20036;-79
2023/07/11 14:33:15;;;;;;;11.45;9.45;;;;;;;;;;5074228;28;20272;-79
2023/07/11 14:35:42;;;;;;;11.10;9.35;;;;;;;;;;5076828;28;20044;-80
2023/07/11 14:38:13;;;;;;;12.68;9.38;;;;;;;;;;5072179;28;20049;-80
2023/07/11 14:40:39;;;;;;;11.60;9.45;;;;;;;;;;5057700;28;20112;-82
2023/07/11 14:43:14;;;;;;;11.20;8.85;;;;;;;;;;5057469;28;20052;-80
2023/07/11 14:45:40;;;;;;;13.45;9.18;;;;;;;;;;5056013;28;20045;-80
2023/07/11 14:48:39;;;;;;;11.55;9.00;;;;;;;;;;5057527;28;20052;-80
2023/07/11 14:51:08;;;;;;;11.43;9.27;;;;;;;;;;5025477;28;20354;-80
2023/07/11 14:53:39;;;;;;;11.60;9.63;;;;;;;;;;5057129;28;20408;-82